Time;durP1;ratioP1;P1;durP2;ratioP2;P2;SDS_P1;SDS_P2;PMS_P1;PMS_P2;Temp;Humidity;BMP_temperature;BMP_pressure;BME280_temperature;BME280_humidity;BME280_pressure;Samples;Min_cycle;Max_cycle;Signal;HPM_P1;HPM_P2
2021/10/29 00:00:04;;;;;;;24.35;17.05;;;22.90;36.30;;;;;;4767462;29;20130;-57
2021/10/29 00:02:31;;;;;;;22.02;16.40;;;22.80;36.20;;;;;;4782728;29;20114;-57
2021/10/29 00:04:58;;;;;;;24.00;16.70;;;22.80;36.20;;;;;;4781966;29;20059;-57
2021/10/29 00:07:26;;;;;;;22.02;15.88;;;22.80;36.20;;;;;;4782365;29;20171;-57
2021/10/29 00:09:53;;;;;;;24.80;17.80;;;22.80;36.20;;;;;;4764912;29;20142;-57
2021/10/29 00:12:22;;;;;;;25.95;17.45;;;22.90;36.20;;;;;;4782783;29;20055;-57
2021/10/29 00:14:54;;;;;;;20.70;15.15;;;22.80;36.20;;;;;;4782319;29;20063;-58
2021/10/29 00:17:21;;;;;;;24.80;16.30;;;22.80;36.20;;;;;;4782721;29;20051;-57
2021/10/29 00:19:49;;;;;;;26.55;18.13;;;22.90;36.30;;;;;;4767923;29;20112;-56
2021/10/29 00:22:20;;;;;;;23.65;17.00;;;22.80;36.20;;;;;;4785594;29;20274;-57
2021/10/29 00:24:47;;;;;;;22.80;17.15;;;22.80;36.20;;;;;;4785549;29;20094;-57
2021/10/29 00:27:14;;;;;;;23.08;16.02;;;22.80;36.20;;;;;;4785420;29;20493;-57
2021/10/29 00:29:41;;;;;;;23.90;16.92;;;22.80;36.20;;;;;;4767571;29;20236;-57
2021/10/29 00:32:08;;;;;;;24.77;16.75;;;22.80;36.20;;;;;;4783860;29;20094;-57
2021/10/29 00:34:36;;;;;;;20.95;16.55;;;22.80;36.20;;;;;;4784068;30;20074;-57
2021/10/29 00:37:03;;;;;;;23.63;16.92;;;22.80;36.20;;;;;;4785617;29;20511;-57
2021/10/29 00:39:30;;;;;;;23.50;17.02;;;22.80;36.20;;;;;;4766618;29;20105;-57
2021/10/29 00:41:58;;;;;;;23.63;16.95;;;22.80;36.20;;;;;;4785443;29;20059;-57
2021/10/29 00:44:27;;;;;;;26.65;16.73;;;22.80;36.20;;;;;;4784594;29;20097;-58
2021/10/29 00:46:55;;;;;;;24.75;17.00;;;22.80;36.20;;;;;;4785465;29;20043;-57
2021/10/29 00:49:22;;;;;;;22.33;16.23;;;22.80;36.10;;;;;;4766716;29;20516;-57
2021/10/29 00:51:50;;;;;;;23.02;16.77;;;22.80;36.10;;;;;;4784814;29;20517;-57
2021/10/29 00:54:19;;;;;;;21.23;15.52;;;22.80;36.10;;;;;;4783688;30;20090;-57
2021/10/29 00:56:49;;;;;;;21.60;15.98;;;22.90;36.10;;;;;;4784563;29;20553;-57
2021/10/29 00:59:18;;;;;;;24.45;16.80;;;22.80;36.00;;;;;;4767355;29;20096;-57
2021/10/29 01:01:47;;;;;;;25.65;16.63;;;22.90;36.10;;;;;;4785067;29;20067;-57
2021/10/29 01:04:15;;;;;;;22.15;15.75;;;22.80;36.00;;;;;;4784476;29;20045;-57
2021/10/29 01:06:44;;;;;;;23.33;16.45;;;22.90;36.00;;;;;;4784908;29;20095;-58
2021/10/29 01:09:13;;;;;;;23.63;16.67;;;22.90;36.00;;;;;;4766265;29;20112;-57
2021/10/29 01:11:40;;;;;;;23.50;16.02;;;22.90;36.00;;;;;;4784807;29;20524;-57
2021/10/29 01:14:08;;;;;;;24.42;17.55;;;22.80;36.00;;;;;;4784459;29;20146;-57
2021/10/29 01:16:35;;;;;;;24.38;16.35;;;22.80;36.00;;;;;;4784794;29;20051;-57
2021/10/29 01:19:03;;;;;;;21.60;15.90;;;22.80;36.00;;;;;;4773006;29;20098;-57
2021/10/29 01:21:31;;;;;;;22.25;16.20;;;22.80;36.00;;;;;;4778824;29;20450;-58
2021/10/29 01:23:58;;;;;;;20.90;14.93;;;22.80;36.00;;;;;;4785078;29;20146;-57
2021/10/29 01:26:26;;;;;;;20.75;15.93;;;22.80;36.00;;;;;;4782727;29;20320;-57
2021/10/29 01:28:55;;;;;;;20.55;15.68;;;22.80;36.00;;;;;;4771408;29;20058;-58
2021/10/29 01:31:22;;;;;;;23.63;15.18;;;22.80;36.10;;;;;;4783279;29;20575;-57
2021/10/29 01:33:50;;;;;;;21.17;15.40;;;22.80;36.10;;;;;;4783858;29;20187;-57
2021/10/29 01:36:17;;;;;;;22.10;15.07;;;22.80;36.10;;;;;;4784269;29;20632;-57
2021/10/29 01:38:48;;;;;;;21.33;15.52;;;22.80;36.10;;;;;;4770822;29;20365;-57
2021/10/29 01:41:16;;;;;;;22.48;15.82;;;22.80;36.10;;;;;;4779804;29;20066;-59
2021/10/29 01:43:45;;;;;;;22.38;15.35;;;22.80;36.10;;;;;;4783950;29;20510;-57
2021/10/29 01:46:13;;;;;;;22.52;16.15;;;22.80;36.10;;;;;;4783569;29;20475;-59
2021/10/29 01:48:46;;;;;;;23.33;16.42;;;22.70;36.10;;;;;;4772051;29;20415;-57
2021/10/29 01:51:13;;;;;;;19.50;14.68;;;22.70;36.10;;;;;;4778783;29;20087;-58
2021/10/29 01:53:41;;;;;;;21.48;14.57;;;22.70;36.10;;;;;;4782754;30;20090;-57
2021/10/29 01:56:09;;;;;;;20.05;14.48;;;22.70;36.10;;;;;;4783622;29;20098;-57
2021/10/29 01:58:37;;;;;;;21.67;15.57;;;22.70;36.20;;;;;;4770997;29;20087;-59
2021/10/29 02:01:05;;;;;;;20.92;14.88;;;22.70;36.20;;;;;;4776691;29;20575;-57
2021/10/29 02:03:34;;;;;;;19.52;15.02;;;22.70;36.20;;;;;;4782665;30;20331;-58
2021/10/29 02:06:01;;;;;;;20.90;16.08;;;22.70;36.20;;;;;;4783604;29;20306;-57
2021/10/29 02:08:29;;;;;;;19.48;14.65;;;22.70;36.80;;;;;;4769593;30;20488;-57
2021/10/29 02:10:56;;;;;;;21.20;15.00;;;22.70;36.20;;;;;;4778051;29;20059;-57
2021/10/29 02:13:26;;;;;;;17.95;14.00;;;22.60;36.10;;;;;;4784085;29;20428;-57
2021/10/29 02:15:53;;;;;;;21.85;14.20;;;22.70;36.20;;;;;;4783225;29;20138;-58
2021/10/29 02:18:21;;;;;;;20.63;15.27;;;22.60;36.10;;;;;;4771959;29;20506;-58
2021/10/29 02:20:49;;;;;;;19.40;13.98;;;22.60;36.10;;;;;;4777447;29;20652;-57
2021/10/29 02:23:16;;;;;;;21.85;14.23;;;22.60;36.10;;;;;;4783795;29;20132;-58
2021/10/29 02:25:44;;;;;;;19.58;14.60;;;22.60;36.10;;;;;;4783415;29;20111;-57
2021/10/29 02:28:17;;;;;;;19.73;15.20;;;22.60;36.10;;;;;;4775225;29;20154;-58
2021/10/29 02:30:46;;;;;;;20.15;14.60;;;22.70;36.10;;;;;;4776579;29;20089;-57
2021/10/29 02:33:16;;;;;;;19.67;14.32;;;22.70;36.00;;;;;;4783142;29;20059;-57
2021/10/29 02:35:44;;;;;;;19.38;14.27;;;22.70;36.00;;;;;;4783341;29;20077;-58
2021/10/29 02:38:12;;;;;;;18.95;14.55;;;22.70;36.00;;;;;;4776229;29;20051;-57
2021/10/29 02:40:39;;;;;;;20.33;14.43;;;22.70;36.00;;;;;;4771881;29;20086;-57
2021/10/29 02:43:06;;;;;;;20.55;14.70;;;22.70;35.90;;;;;;4783967;29;20078;-57
2021/10/29 02:45:33;;;;;;;20.23;14.55;;;22.70;35.90;;;;;;4782416;29;20055;-58
2021/10/29 02:48:01;;;;;;;17.60;14.35;;;22.70;35.90;;;;;;4775418;29;20399;-57
2021/10/29 02:50:28;;;;;;;19.13;13.30;;;22.70;35.90;;;;;;4772806;29;20151;-58
2021/10/29 02:52:55;;;;;;;17.95;13.48;;;22.70;35.90;;;;;;4782840;29;20486;-57
2021/10/29 02:55:22;;;;;;;20.83;14.13;;;22.70;35.90;;;;;;4782263;29;20058;-57
2021/10/29 02:57:49;;;;;;;19.85;13.95;;;22.70;35.90;;;;;;4775059;29;20514;-58
2021/10/29 03:00:18;;;;;;;17.55;13.10;;;22.70;35.90;;;;;;4772426;29;20139;-58
2021/10/29 03:02:46;;;;;;;18.48;13.63;;;22.70;35.90;;;;;;4782964;29;20074;-58
2021/10/29 03:05:14;;;;;;;18.50;13.38;;;22.70;36.00;;;;;;4782610;29;20121;-58
2021/10/29 03:07:41;;;;;;;18.83;14.95;;;22.70;36.00;;;;;;4780718;29;20055;-57
2021/10/29 03:10:10;;;;;;;18.70;13.48;;;22.70;36.00;;;;;;4765189;29;20055;-57
2021/10/29 03:12:39;;;;;;;16.55;12.90;;;22.70;36.00;;;;;;4783067;29;20580;-57
2021/10/29 03:15:07;;;;;;;17.95;12.55;;;22.70;36.00;;;;;;4782173;29;20058;-57
2021/10/29 03:17:35;;;;;;;18.02;13.50;;;22.60;35.90;;;;;;4781347;29;20093;-58
2021/10/29 03:20:05;;;;;;;19.77;13.90;;;22.60;35.90;;;;;;4767846;29;20166;-57
2021/10/29 03:22:32;;;;;;;16.85;12.23;;;22.60;35.90;;;;;;4782557;29;20051;-57
2021/10/29 03:24:59;;;;;;;18.63;12.80;;;22.60;35.90;;;;;;4783490;29;20545;-57
2021/10/29 03:27:26;;;;;;;18.92;12.65;;;22.60;35.90;;;;;;4780843;29;20051;-57
2021/10/29 03:29:53;;;;;;;17.80;13.40;;;22.60;35.90;;;;;;4765065;29;20059;-57
2021/10/29 03:32:22;;;;;;;18.23;13.73;;;22.60;35.90;;;;;;4766298;30;20518;-57
2021/10/29 03:34:50;;;;;;;17.67;13.18;;;22.60;35.90;;;;;;4782305;29;20117;-57
2021/10/29 03:37:32;;;;;;;19.08;12.70;;;22.60;36.00;;;;;;4781675;30;20063;-57
2021/10/29 03:43:09;;;;;;;15.38;12.25;;;22.60;36.00;;;;;;4765002;30;20108;-57
2021/10/29 03:45:42;;;;;;;15.85;12.80;;;22.60;36.10;;;;;;4763551;30;20047;-59
2021/10/29 03:48:10;;;;;;;17.73;13.77;;;22.50;36.00;;;;;;4760357;30;20211;-57
2021/10/29 03:50:41;;;;;;;16.90;12.68;;;22.50;36.00;;;;;;4770968;29;20130;-58
2021/10/29 03:53:25;;;;;;;19.92;13.00;;;22.50;36.60;;;;;;4783210;29;20493;-57
2021/10/29 03:55:54;;;;;;;16.05;12.88;;;22.50;36.00;;;;;;4786374;29;20132;-57
2021/10/29 03:58:21;;;;;;;17.58;12.80;;;22.50;36.00;;;;;;4774093;29;20425;-58
2021/10/29 04:00:48;;;;;;;17.50;13.05;;;22.50;36.00;;;;;;4780824;29;20538;-57
2021/10/29 04:03:15;;;;;;;17.75;12.57;;;22.50;36.00;;;;;;4785107;29;20059;-57
2021/10/29 04:05:43;;;;;;;18.10;13.23;;;22.50;35.90;;;;;;4780482;29;20495;-57
2021/10/29 04:08:10;;;;;;;17.42;12.80;;;22.50;35.90;;;;;;4769804;29;20503;-58
2021/10/29 04:10:45;;;;;;;19.50;13.30;;;22.60;35.90;;;;;;4773933;29;20094;-57
2021/10/29 04:13:12;;;;;;;16.70;12.20;;;22.60;35.90;;;;;;4783915;30;20056;-58
2021/10/29 04:15:41;;;;;;;16.98;12.50;;;22.60;35.90;;;;;;4784276;29;20081;-58
2021/10/29 04:18:09;;;;;;;20.15;13.30;;;22.60;35.80;;;;;;4775877;29;20067;-57
2021/10/29 04:20:37;;;;;;;15.75;12.10;;;22.60;35.80;;;;;;4773394;30;20051;-57
2021/10/29 04:23:05;;;;;;;15.73;11.73;;;22.60;35.80;;;;;;4784223;29;20051;-57
2021/10/29 04:25:33;;;;;;;15.43;12.18;;;22.60;35.80;;;;;;4786110;29;20105;-57
2021/10/29 04:28:05;;;;;;;16.60;12.00;;;22.60;35.70;;;;;;4777243;29;20090;-57
2021/10/29 04:30:32;;;;;;;14.68;10.85;;;22.60;35.70;;;;;;4775609;29;20055;-57
2021/10/29 04:33:07;;;;;;;19.73;12.55;;;22.60;35.70;;;;;;4784437;29;20575;-57
2021/10/29 04:35:35;;;;;;;15.50;10.85;;;22.60;35.70;;;;;;4785371;29;20168;-57
2021/10/29 04:38:05;;;;;;;16.52;11.95;;;22.50;35.70;;;;;;4775764;29;20138;-59
2021/10/29 04:40:34;;;;;;;;;;;22.50;35.70;;;;;;4767026;30;20625;-57
2021/10/29 04:43:03;;;;;;;18.05;12.07;;;22.60;35.80;;;;;;4780860;29;19926;-57
2021/10/29 04:45:31;;;;;;;16.55;12.05;;;22.50;35.80;;;;;;4777314;30;20062;-58
2021/10/29 04:48:00;;;;;;;16.08;11.52;;;22.50;35.80;;;;;;4771308;29;20067;-58
2021/10/29 04:50:28;;;;;;;15.13;11.02;;;22.50;35.80;;;;;;4769250;30;20139;-57
2021/10/29 04:52:56;;;;;;;15.88;11.40;;;22.50;35.80;;;;;;4783619;30;20510;-57
2021/10/29 04:55:23;;;;;;;16.35;11.13;;;22.50;35.80;;;;;;4785604;29;20064;-58
2021/10/29 04:57:50;;;;;;;15.73;11.90;;;22.50;35.80;;;;;;4773825;29;20097;-57
2021/10/29 05:00:19;;;;;;;15.88;11.38;;;22.50;35.80;;;;;;4774390;30;20051;-58
2021/10/29 05:02:46;;;;;;;15.55;11.43;;;22.50;35.80;;;;;;4784583;29;20112;-57
2021/10/29 05:05:14;;;;;;;16.95;11.93;;;22.50;35.80;;;;;;4783646;29;20047;-59
2021/10/29 05:07:43;;;;;;;15.00;11.18;;;22.50;35.60;;;;;;4780131;29;20055;-58
2021/10/29 05:10:10;;;;;;;17.60;11.80;;;22.50;35.30;;;;;;4776321;29;20112;-58
2021/10/29 05:12:37;;;;;;;19.73;11.70;;;22.50;35.20;;;;;;4785542;29;20051;-57
2021/10/29 05:15:05;;;;;;;16.30;11.55;;;22.50;35.10;;;;;;4784573;30;20090;-57
2021/10/29 05:17:32;;;;;;;14.45;10.90;;;22.50;35.10;;;;;;4781262;29;20051;-57
2021/10/29 05:20:04;;;;;;;14.43;10.75;;;22.50;35.10;;;;;;4765648;29;20095;-58
2021/10/29 05:22:31;;;;;;;18.40;10.88;;;22.50;35.10;;;;;;4777853;29;20142;-58
2021/10/29 05:24:58;;;;;;;13.43;10.30;;;22.60;35.40;;;;;;4782379;29;20067;-57
2021/10/29 05:27:25;;;;;;;18.20;10.55;;;22.60;35.40;;;;;;4783658;30;20438;-56
2021/10/29 05:29:52;;;;;;;13.50;10.18;;;22.80;35.20;;;;;;4759306;29;20073;-57
2021/10/29 05:32:19;;;;;;;15.00;10.48;;;23.00;35.20;;;;;;4778877;29;20109;-58
2021/10/29 05:34:47;;;;;;;12.75;9.88;;;23.20;35.00;;;;;;4774396;29;20502;-58
2021/10/29 05:37:16;;;;;;;13.15;10.43;;;23.40;34.60;;;;;;4776292;29;20070;-57
2021/10/29 05:39:47;;;;;;;14.63;11.07;;;23.70;34.30;;;;;;4758677;29;20154;-60
2021/10/29 05:42:14;;;;;;;14.02;10.57;;;23.90;33.90;;;;;;4789350;29;20502;-58
2021/10/29 05:44:41;;;;;;;14.40;10.85;;;24.10;33.60;;;;;;4773086;30;20055;-56
2021/10/29 05:47:09;;;;;;;19.30;10.20;;;24.30;33.40;;;;;;4772478;29;20152;-57
2021/10/29 05:49:36;;;;;;;13.35;10.50;;;24.50;33.40;;;;;;4757326;29;20662;-56
2021/10/29 05:52:04;;;;;;;12.68;10.38;;;24.60;33.50;;;;;;4778655;29;20087;-58
2021/10/29 05:54:43;;;;;;;13.13;10.10;;;24.70;33.20;;;;;;4769643;29;20241;-57
2021/10/29 05:57:10;;;;;;;13.55;10.73;;;24.90;32.90;;;;;;4776984;30;20136;-57
2021/10/29 05:59:37;;;;;;;14.27;10.85;;;25.00;32.40;;;;;;4755294;29;20055;-57
2021/10/29 06:02:05;;;;;;;16.45;10.75;;;25.10;32.00;;;;;;4778447;29;20134;-57
2021/10/29 06:04:32;;;;;;;15.70;10.43;;;25.20;32.00;;;;;;4779462;29;20064;-58
2021/10/29 06:06:59;;;;;;;13.63;10.30;;;25.30;31.90;;;;;;4777222;29;20076;-55
2021/10/29 06:09:27;;;;;;;14.30;11.27;;;25.40;31.80;;;;;;4764303;29;20051;-57
2021/10/29 06:11:54;;;;;;;14.43;10.68;;;25.50;31.60;;;;;;4774019;29;20532;-57
2021/10/29 06:14:22;;;;;;;14.90;10.48;;;25.50;31.40;;;;;;4777736;29;20459;-56
2021/10/29 06:16:50;;;;;;;17.33;10.80;;;25.60;31.30;;;;;;4777710;29;20106;-55
2021/10/29 06:19:17;;;;;;;14.95;11.15;;;25.70;31.10;;;;;;4761409;29;20104;-57
2021/10/29 06:21:56;;;;;;;17.52;12.23;;;25.70;31.00;;;;;;4769347;29;20091;-57
2021/10/29 06:24:24;;;;;;;18.40;11.35;;;25.70;30.90;;;;;;4775638;30;20061;-58
2021/10/29 06:27:01;;;;;;;16.20;10.98;;;25.80;31.00;;;;;;4777569;30;20063;-58
2021/10/29 06:29:29;;;;;;;19.13;11.48;;;25.90;30.90;;;;;;4758096;29;20051;-57
2021/10/29 06:31:59;;;;;;;21.38;11.63;;;26.00;30.90;;;;;;4772308;29;20066;-57
2021/10/29 06:34:26;;;;;;;15.55;10.30;;;26.00;30.80;;;;;;4759250;29;20117;-58
2021/10/29 06:36:53;;;;;;;15.50;10.57;;;26.10;30.90;;;;;;4774949;29;20134;-58
2021/10/29 06:39:20;;;;;;;21.85;12.35;;;26.10;31.00;;;;;;4757710;29;20090;-57
2021/10/29 06:41:48;;;;;;;15.57;11.57;;;26.10;31.30;;;;;;4770589;29;20082;-56
2021/10/29 06:44:31;;;;;;;16.13;11.25;;;26.20;31.20;;;;;;4773072;29;20079;-58
2021/10/29 07:01:01;;;;;;;13.85;11.23;;;26.40;30.60;;;;;;4760323;29;20051;-59
2021/10/29 07:04:07;;;;;;;13.85;10.65;;;26.50;31.00;;;;;;4774105;29;20059;-58
2021/10/29 07:42:37;;;;;;;16.40;11.82;;;25.30;32.60;;;;;;4777581;29;20058;-60
2021/10/29 07:45:05;;;;;;;14.55;10.35;;;25.30;32.70;;;;;;4773499;30;20083;-58
2021/10/29 07:47:33;;;;;;;12.70;10.52;;;25.20;32.70;;;;;;4775989;29;20059;-59
2021/10/29 07:50:01;;;;;;;14.43;10.73;;;25.20;32.80;;;;;;4757954;29;20059;-58
2021/10/29 07:52:28;;;;;;;15.20;11.20;;;25.20;32.90;;;;;;4773829;29;20059;-59
2021/10/29 07:54:55;;;;;;;21.10;11.32;;;25.10;32.80;;;;;;4776974;29;20138;-60
2021/10/29 07:57:24;;;;;;;12.50;9.57;;;25.10;32.90;;;;;;4776882;30;20463;-59
2021/10/29 07:59:52;;;;;;;15.13;11.63;;;25.10;32.80;;;;;;4744749;29;20150;-59
2021/10/29 08:02:20;;;;;;;13.15;10.43;;;25.10;33.00;;;;;;4768421;29;20153;-57
2021/10/29 08:04:48;;;;;;;14.65;11.15;;;25.10;33.10;;;;;;4777366;29;20073;-58
2021/10/29 08:07:16;;;;;;;16.80;11.05;;;25.10;33.10;;;;;;4775400;30;20093;-59
2021/10/29 08:09:44;;;;;;;14.05;9.63;;;25.00;33.10;;;;;;4757502;29;20052;-59
2021/10/29 08:12:14;;;;;;;15.75;10.15;;;25.10;33.10;;;;;;4774283;29;20465;-58
2021/10/29 08:14:42;;;;;;;;;;;25.00;32.80;;;;;;4775235;29;20055;-58
2021/10/29 08:17:10;;;;;;;13.65;10.18;;;25.00;32.80;;;;;;4776983;30;19930;-58
2021/10/29 08:19:38;;;;;;;11.70;9.90;;;25.00;32.90;;;;;;4755932;29;20424;-59
2021/10/29 08:22:05;;;;;;;12.85;9.82;;;25.00;33.00;;;;;;4774614;29;20387;-57
2021/10/29 08:24:35;;;;;;;12.77;9.93;;;24.90;33.00;;;;;;4778325;29;20055;-58
2021/10/29 08:27:03;;;;;;;13.52;10.27;;;24.90;32.90;;;;;;4778379;29;20473;-58
2021/10/29 08:29:30;;;;;;;11.52;10.13;;;24.90;32.80;;;;;;4757719;29;20093;-60
2021/10/29 08:31:58;;;;;;;14.63;10.27;;;24.90;32.90;;;;;;4772528;29;20117;-59
2021/10/29 08:34:26;;;;;;;13.50;10.63;;;24.90;32.90;;;;;;4774004;29;20051;-59
2021/10/29 08:36:55;;;;;;;14.50;10.25;;;24.90;32.90;;;;;;4773448;29;20063;-57
2021/10/29 08:39:22;;;;;;;13.38;10.90;;;24.90;33.00;;;;;;4763986;29;20120;-58
2021/10/29 08:41:50;;;;;;;13.43;9.90;;;24.90;32.90;;;;;;4768045;29;20544;-58
2021/10/29 08:44:17;;;;;;;15.23;9.93;;;24.90;32.80;;;;;;4774455;29;20058;-57
2021/10/29 08:46:47;;;;;;;12.02;9.98;;;24.90;32.70;;;;;;4776625;29;20083;-57
2021/10/29 08:49:15;;;;;;;14.40;9.45;;;24.90;32.80;;;;;;4757630;29;20051;-58
2021/10/29 08:51:43;;;;;;;11.82;10.00;;;24.90;32.90;;;;;;4767737;29;20062;-57
2021/10/29 08:54:12;;;;;;;14.40;10.93;;;24.90;32.70;;;;;;4776602;29;20055;-57
2021/10/29 08:56:40;;;;;;;15.60;10.02;;;24.90;32.50;;;;;;4773539;29;20393;-57
2021/10/29 08:59:18;;;;;;;17.05;10.20;;;24.90;32.50;;;;;;4762573;29;20128;-57
2021/10/29 09:01:55;;;;;;;11.73;9.45;;;24.90;32.40;;;;;;4770169;29;20055;-57
2021/10/29 09:04:35;;;;;;;10.68;9.43;;;24.80;32.30;;;;;;4775646;29;20047;-57
2021/10/29 09:07:18;;;;;;;13.73;9.75;;;24.90;32.30;;;;;;4769700;29;20055;-59
2021/10/29 09:33:05;;;;;;;14.25;10.13;;;24.80;32.30;;;;;;4772861;29;20079;-58
2021/10/29 09:35:36;;;;;;;12.43;9.23;;;24.80;32.30;;;;;;4790539;29;20082;-58
2021/10/29 09:38:10;;;;;;;11.02;8.73;;;24.80;32.40;;;;;;4768173;29;20063;-58
2021/10/29 09:40:53;;;;;;;12.43;8.80;;;24.80;32.40;;;;;;4763524;29;20097;-58
2021/10/29 09:43:24;;;;;;;12.55;8.73;;;24.80;32.40;;;;;;4774456;30;20146;-59
2021/10/29 09:45:58;;;;;;;10.48;8.35;;;24.80;32.40;;;;;;4774815;29;20061;-59
2021/10/29 09:48:45;;;;;;;12.02;9.10;;;24.80;32.40;;;;;;4767904;29;20142;-59
2021/10/29 09:51:15;;;;;;;12.15;9.35;;;24.80;32.30;;;;;;4767216;29;20063;-59
2021/10/29 09:54:02;;;;;;;11.77;8.48;;;24.80;32.30;;;;;;4776650;29;20059;-58
2021/10/29 09:56:45;;;;;;;10.43;8.38;;;24.80;32.40;;;;;;4778567;30;20162;-59
2021/10/29 09:59:12;;;;;;;16.25;8.68;;;24.90;32.50;;;;;;4757849;29;20051;-59
2021/10/29 10:01:40;;;;;;;8.93;7.75;;;24.90;32.50;;;;;;4770921;29;20482;-59
2021/10/29 10:04:08;;;;;;;10.73;7.88;;;24.80;32.50;;;;;;4773492;29;20059;-60
2021/10/29 10:06:40;;;;;;;8.63;7.15;;;24.80;32.50;;;;;;4773414;29;20055;-59
2021/10/29 10:09:09;;;;;;;13.98;7.63;;;24.90;32.50;;;;;;4762654;29;20141;-60
2021/10/29 10:11:44;;;;;;;9.55;8.05;;;24.90;32.50;;;;;;4767092;29;20476;-59
2021/10/29 10:14:14;;;;;;;14.52;8.65;;;24.90;32.50;;;;;;4774681;29;20112;-59
2021/10/29 10:16:42;;;;;;;11.63;8.93;;;24.90;32.50;;;;;;4775186;29;20085;-58
2021/10/29 10:19:10;;;;;;;16.98;7.53;;;24.90;32.50;;;;;;4759775;29;20506;-56
2021/10/29 10:21:41;;;;;;;11.73;7.25;;;24.90;32.60;;;;;;4766040;30;20583;-58
2021/10/29 10:24:14;;;;;;;12.25;7.97;;;24.90;32.50;;;;;;4770140;30;20055;-58
2021/10/29 10:27:16;;;;;;;9.77;7.68;;;24.90;32.60;;;;;;4776224;29;20054;-60
2021/10/29 10:30:04;;;;;;;10.05;7.35;;;24.90;32.70;;;;;;4761610;29;20051;-59
2021/10/29 10:41:06;;;;;;;8.98;7.50;;;24.90;33.20;;;;;;4766500;30;20713;-57
2021/10/29 10:43:40;;;;;;;8.85;7.32;;;24.90;32.60;;;;;;4769877;30;20062;-58
2021/10/29 10:46:18;;;;;;;11.13;7.32;;;24.90;32.70;;;;;;4774509;29;20055;-58
2021/10/29 10:48:57;;;;;;;8.15;7.30;;;24.90;32.80;;;;;;4758778;29;20063;-59
2021/10/29 10:51:43;;;;;;;8.98;7.35;;;24.90;32.80;;;;;;4770615;30;20577;-58
2021/10/29 10:54:32;;;;;;;8.85;7.20;;;25.00;33.10;;;;;;4774439;29;20498;-58
2021/10/29 10:57:09;;;;;;;8.50;7.07;;;24.90;33.10;;;;;;4775996;30;20116;-57
2021/10/29 10:59:54;;;;;;;8.50;6.72;;;25.00;33.10;;;;;;4755321;29;20047;-58
2021/10/29 11:02:53;;;;;;;8.52;6.97;;;25.00;33.10;;;;;;4776388;29;20108;-57
2021/10/29 11:05:58;;;;;;;9.60;7.07;;;25.00;33.30;;;;;;4776293;29;20094;-58
2021/10/29 11:11:21;;;;;;;9.93;7.30;;;25.10;33.80;;;;;;4762324;29;20055;-58
2021/10/29 11:13:56;;;;;;;10.75;6.97;;;25.10;33.80;;;;;;4774048;29;20143;-57
2021/10/29 11:16:29;;;;;;;8.95;7.55;;;25.10;33.80;;;;;;4776214;29;20130;-57
2021/10/29 11:19:12;;;;;;;15.00;6.70;;;25.10;33.70;;;;;;4760396;29;20070;-55
2021/10/29 11:21:49;;;;;;;10.32;7.38;;;25.20;33.80;;;;;;4771707;30;20475;-54
2021/10/29 11:24:31;;;;;;;7.35;6.60;;;25.10;33.60;;;;;;4772488;30;20051;-55
2021/10/29 11:27:04;;;;;;;12.43;7.35;;;25.20;33.60;;;;;;4776291;30;20131;-56
2021/10/29 11:29:44;;;;;;;8.88;7.47;;;25.20;33.50;;;;;;4760055;29;20502;-55
2021/10/29 11:32:11;;;;;;;9.10;7.03;;;25.20;33.40;;;;;;4773851;29;20146;-57
2021/10/29 11:34:38;;;;;;;9.63;6.93;;;25.20;33.60;;;;;;4770662;29;20063;-57
2021/10/29 11:37:07;;;;;;;8.13;7.07;;;25.20;33.60;;;;;;4774523;29;20055;-55
2021/10/29 11:39:35;;;;;;;9.63;7.60;;;25.20;33.60;;;;;;4754922;29;20086;-57
2021/10/29 11:42:03;;;;;;;10.05;7.70;;;25.20;33.60;;;;;;4787582;29;20086;-60
2021/10/29 11:44:31;;;;;;;7.50;6.50;;;25.30;33.70;;;;;;4776416;29;20059;-59
2021/10/29 11:46:58;;;;;;;10.38;6.90;;;25.30;33.70;;;;;;4772494;29;20067;-58
2021/10/29 11:49:28;;;;;;;9.63;7.05;;;25.30;33.70;;;;;;4760307;29;20060;-58
2021/10/29 11:51:58;;;;;;;9.73;7.65;;;25.30;33.70;;;;;;4767407;29;20074;-58
2021/10/29 11:54:32;;;;;;;8.63;7.38;;;25.30;33.70;;;;;;4768783;29;20060;-57
2021/10/29 11:57:21;;;;;;;7.38;6.50;;;25.40;34.20;;;;;;4778642;29;20134;-57
2021/10/29 12:00:10;;;;;;;8.45;6.93;;;25.40;33.70;;;;;;4755427;29;20128;-57
2021/10/29 12:06:14;;;;;;;11.27;7.57;;;25.40;33.90;;;;;;4774496;30;20579;-56
2021/10/29 12:08:25;;;;;;;8.55;7.65;;;25.40;33.70;;;;;;4768676;29;20853;-56
2021/10/29 12:11:05;;;;;;;8.82;6.75;;;25.40;33.60;;;;;;4768484;29;20057;-55
2021/10/29 12:13:36;;;;;;;11.45;7.95;;;25.40;33.40;;;;;;4777161;29;20052;-55
2021/10/29 12:16:14;;;;;;;9.48;7.40;;;25.40;33.30;;;;;;4788000;29;20051;-56
2021/10/29 12:18:56;;;;;;;11.50;7.55;;;25.40;33.20;;;;;;4771576;29;20067;-56
2021/10/29 12:21:25;;;;;;;9.10;7.05;;;25.40;33.10;;;;;;4775620;29;20082;-55
2021/10/29 12:23:53;;;;;;;13.82;6.80;;;25.40;33.00;;;;;;4778499;30;20051;-56
2021/10/29 12:26:23;;;;;;;10.70;8.20;;;25.40;33.00;;;;;;4784349;29;20077;-56
2021/10/29 12:28:54;;;;;;;;;;;25.40;33.00;;;;;;4770520;29;20906;-55
2021/10/29 12:31:47;;;;;;;10.45;6.97;;;25.40;33.00;;;;;;4777729;29;19960;-53
2021/10/29 12:34:42;;;;;;;11.07;7.00;;;25.40;33.00;;;;;;4783596;29;21532;-53
2021/10/29 12:37:37;;;;;;;9.73;8.23;;;25.40;33.00;;;;;;4783494;29;20043;-54
2021/10/29 12:54:39;;;;;;;9.63;7.03;;;25.40;33.30;;;;;;4784090;29;20056;-54
2021/10/29 13:02:54;;;;;;;;;;;25.40;33.30;;;;;;4784226;29;20055;-55
2021/10/29 13:05:22;;;;;;;8.60;7.40;;;25.40;33.70;;;;;;4772452;30;19936;-53
2021/10/29 13:07:49;;;;;;;8.38;6.93;;;25.40;33.70;;;;;;4776104;29;20658;-55
2021/10/29 13:10:18;;;;;;;9.75;6.85;;;25.40;33.60;;;;;;4777284;29;20081;-56
2021/10/29 13:13:01;;;;;;;9.05;6.75;;;25.40;33.50;;;;;;4783155;30;20112;-56
2021/10/29 13:15:30;;;;;;;8.88;7.05;;;25.40;33.50;;;;;;4783922;29;20075;-54
2021/10/29 13:18:01;;;;;;;8.18;6.75;;;25.40;33.40;;;;;;4776399;29;20061;-54
2021/10/29 13:23:53;;;;;;;7.18;6.07;;;25.40;33.30;;;;;;4776546;30;20547;-54
2021/10/29 13:26:31;;;;;;;7.72;6.85;;;25.40;33.40;;;;;;4784519;29;20094;-55
2021/10/29 13:28:57;;;;;;;9.25;6.22;;;25.40;33.40;;;;;;4771078;29;20116;-53
2021/10/29 13:37:15;;;;;;;8.65;6.97;;;25.40;34.00;;;;;;4782549;29;20116;-54
2021/10/29 13:50:22;;;;;;;7.32;5.43;;;25.30;33.30;;;;;;4764459;29;20138;-56
2021/10/29 13:51:24;;;;;;;7.60;6.68;;;25.30;32.90;;;;;;4771070;29;20554;-52
2021/10/29 13:59:53;;;;;;;10.40;6.28;;;25.30;32.80;;;;;;4760112;30;20052;-55
2021/10/29 14:02:43;;;;;;;12.73;6.95;;;25.30;32.70;;;;;;4781051;29;20067;-54
2021/10/29 14:30:38;;;;;;;11.00;6.63;;;25.20;32.60;;;;;;4772370;29;20047;-52
2021/10/29 14:33:09;;;;;;;6.63;5.93;;;25.20;32.60;;;;;;4783490;29;20078;-53
2021/10/29 14:35:41;;;;;;;10.40;7.18;;;25.20;32.60;;;;;;4782493;29;20059;-54
2021/10/29 14:38:17;;;;;;;9.32;6.90;;;25.10;32.50;;;;;;4773852;29;20055;-53
2021/10/29 14:40:56;;;;;;;8.82;7.13;;;25.20;32.60;;;;;;4770494;29;20151;-53
2021/10/29 14:43:28;;;;;;;8.80;7.07;;;25.10;32.50;;;;;;4781186;29;20146;-53
2021/10/29 14:46:09;;;;;;;7.68;6.90;;;25.10;32.60;;;;;;4781789;29;20564;-53
2021/10/29 14:48:51;;;;;;;9.77;7.57;;;25.10;32.60;;;;;;4767528;29;20141;-55
2021/10/29 15:02:43;;;;;;;9.07;6.90;;;25.00;32.80;;;;;;4780121;29;20191;-55
2021/10/29 15:05:22;;;;;;;8.55;6.55;;;25.00;32.90;;;;;;4781608;29;20357;-53
2021/10/29 15:16:41;;;;;;;7.63;6.82;;;24.90;33.00;;;;;;4781975;29;20100;-55
2021/10/29 15:27:38;;;;;;;7.47;6.60;;;24.80;33.10;;;;;;4781941;29;20482;-55
2021/10/29 15:30:11;;;;;;;8.68;6.82;;;24.80;33.10;;;;;;4765127;29;20592;-55
2021/10/29 15:32:51;;;;;;;8.90;7.20;;;24.80;33.80;;;;;;4781632;29;20052;-55
2021/10/29 15:41:13;;;;;;;8.55;7.63;;;24.70;33.30;;;;;;4775988;29;20067;-50
2021/10/29 15:43:52;;;;;;;7.97;7.15;;;24.70;33.40;;;;;;4780733;29;20055;-53
2021/10/29 15:46:37;;;;;;;8.75;7.70;;;24.70;33.40;;;;;;4782059;29;20471;-54
2021/10/29 15:49:19;;;;;;;9.23;7.80;;;24.60;33.40;;;;;;4769765;29;20107;-53
2021/10/29 15:51:54;;;;;;;8.98;7.72;;;24.60;33.40;;;;;;4785286;29;20526;-54
2021/10/29 15:54:21;;;;;;;10.10;8.10;;;24.60;33.50;;;;;;4784294;29;20293;-54
2021/10/29 15:56:53;;;;;;;8.93;8.02;;;24.50;33.50;;;;;;4785039;29;20116;-54
2021/10/29 15:59:42;;;;;;;9.68;8.30;;;24.50;33.50;;;;;;4766745;29;20100;-52
2021/10/29 16:02:34;;;;;;;10.98;8.52;;;24.50;33.60;;;;;;4784381;29;20484;-55
2021/10/29 16:18:54;;;;;;;8.40;7.50;;;24.30;33.80;;;;;;4771495;29;20283;-54
2021/10/29 16:21:22;;;;;;;8.80;7.90;;;24.30;33.90;;;;;;4778615;29;20598;-55